sensor_id;sensor_type;location;lat;lon;timestamp;temperature;humidity
15355;DHT22;7777;52.254;9.618;2023-03-01T00:00:47;-1.90;99.90
15355;DHT22;7777;52.254;9.618;2023-03-01T00:03:12;-1.90;99.90
15355;DHT22;7777;52.254;9.618;2023-03-01T00:05:44;-2.00;99.90
15355;DHT22;7777;52.254;9.618;2023-03-01T00:08:11;-2.00;99.90
15355;DHT22;7777;52.254;9.618;2023-03-01T00:10:37;-1.90;99.90
15355;DHT22;7777;52.254;9.618;2023-03-01T00:13:03;-2.00;99.90
15355;DHT22;7777;52.254;9.618;2023-03-01T00:15:31;-1.80;99.90
15355;DHT22;7777;52.254;9.618;2023-03-01T00:17:57;-2.00;99.90
15355;DHT22;7777;52.254;9.618;2023-03-01T00:20:23;-2.10;99.90
15355;DHT22;7777;52.254;9.618;2023-03-01T00:22:49;-2.10;99.90
15355;DHT22;7777;52.254;9.618;2023-03-01T00:25:15;-2.10;99.90
15355;DHT22;7777;52.254;9.618;2023-03-01T00:27:41;-2.10;99.90
15355;DHT22;7777;52.254;9.618;2023-03-01T00:30:07;-2.20;99.90
15355;DHT22;7777;52.254;9.618;2023-03-01T00:32:33;-2.20;99.90
15355;DHT22;7777;52.254;9.618;2023-03-01T00:34:59;-2.20;99.90
15355;DHT22;7777;52.254;9.618;2023-03-01T00:37:25;-2.20;99.90
15355;DHT22;7777;52.254;9.618;2023-03-01T00:39:50;-2.30;99.90
15355;DHT22;7777;52.254;9.618;2023-03-01T00:42:16;-2.30;99.90
15355;DHT22;7777;52.254;9.618;2023-03-01T00:44:42;-2.40;99.90
15355;DHT22;7777;52.254;9.618;2023-03-01T00:47:08;-2.40;99.90
15355;DHT22;7777;52.254;9.618;2023-03-01T00:49:34;-2.40;99.90
15355;DHT22;7777;52.254;9.618;2023-03-01T00:52:00;-2.40;99.90
15355;DHT22;7777;52.254;9.618;2023-03-01T00:54:26;-2.40;99.90
15355;DHT22;7777;52.254;9.618;2023-03-01T00:56:51;-2.40;99.90
15355;DHT22;7777;52.254;9.618;2023-03-01T00:59:18;-2.40;99.90
15355;DHT22;7777;52.254;9.618;2023-03-01T01:01:44;-2.50;99.90
15355;DHT22;7777;52.254;9.618;2023-03-01T01:04:11;-2.30;99.90
15355;DHT22;7777;52.254;9.618;2023-03-01T01:06:43;-2.50;99.90
15355;DHT22;7777;52.254;9.618;2023-03-01T01:09:15;-2.50;99.90
15355;DHT22;7777;52.254;9.618;2023-03-01T01:11:50;-2.60;99.90
15355;DHT22;7777;52.254;9.618;2023-03-01T01:14:17;-2.60;99.90
15355;DHT22;7777;52.254;9.618;2023-03-01T01:16:43;-2.70;99.90
15355;DHT22;7777;52.254;9.618;2023-03-01T01:19:11;-2.70;99.90
15355;DHT22;7777;52.254;9.618;2023-03-01T01:21:37;-2.70;99.90
15355;DHT22;7777;52.254;9.618;2023-03-01T01:24:04;-2.70;99.90
15355;DHT22;7777;52.254;9.618;2023-03-01T01:26:32;-2.70;99.90
15355;DHT22;7777;52.254;9.618;2023-03-01T01:29:00;-2.70;99.90
15355;DHT22;7777;52.254;9.618;2023-03-01T01:31:27;-2.70;99.90
15355;DHT22;7777;52.254;9.618;2023-03-01T01:33:54;-2.70;99.90
15355;DHT22;7777;52.254;9.618;2023-03-01T01:36:20;-2.70;99.90
15355;DHT22;7777;52.254;9.618;2023-03-01T01:38:46;-2.80;99.90
15355;DHT22;7777;52.254;9.618;2023-03-01T01:41:13;-2.80;99.90
15355;DHT22;7777;52.254;9.618;2023-03-01T01:44:30;-2.80;99.90
15355;DHT22;7777;52.254;9.618;2023-03-01T01:47:01;-2.90;99.90
15355;DHT22;7777;52.254;9.618;2023-03-01T01:49:48;-2.90;99.90
15355;DHT22;7777;52.254;9.618;2023-03-01T01:52:20;-2.90;99.90
15355;DHT22;7777;52.254;9.618;2023-03-01T01:55:01;-2.80;99.90
15355;DHT22;7777;52.254;9.618;2023-03-01T02:00:05;-3.00;99.90
15355;DHT22;7777;52.254;9.618;2023-03-01T02:02:33;-2.90;99.90
15355;DHT22;7777;52.254;9.618;2023-03-01T02:05:14;-3.00;99.90
15355;DHT22;7777;52.254;9.618;2023-03-01T02:07:52;-3.00;99.90
15355;DHT22;7777;52.254;9.618;2023-03-01T02:10:18;-3.10;99.90
15355;DHT22;7777;52.254;9.618;2023-03-01T02:12:44;-3.10;99.90
15355;DHT22;7777;52.254;9.618;2023-03-01T02:15:10;-3.10;99.90
15355;DHT22;7777;52.254;9.618;2023-03-01T02:17:38;-3.10;99.90
15355;DHT22;7777;52.254;9.618;2023-03-01T02:20:14;-3.10;99.90
15355;DHT22;7777;52.254;9.618;2023-03-01T02:22:46;-3.10;99.90
15355;DHT22;7777;52.254;9.618;2023-03-01T02:28:10;-3.10;99.90
15355;DHT22;7777;52.254;9.618;2023-03-01T02:30:45;-3.10;99.90
15355;DHT22;7777;52.254;9.618;2023-03-01T02:33:33;-3.10;99.90
15355;DHT22;7777;52.254;9.618;2023-03-01T02:36:04;-3.10;99.90
15355;DHT22;7777;52.254;9.618;2023-03-01T02:38:32;-3.20;99.90
15355;DHT22;7777;52.254;9.618;2023-03-01T02:40:58;-3.10;99.90
15355;DHT22;7777;52.254;9.618;2023-03-01T02:43:30;-3.20;99.90
15355;DHT22;7777;52.254;9.618;2023-03-01T02:46:12;-3.20;99.90
15355;DHT22;7777;52.254;9.618;2023-03-01T02:48:45;-3.20;99.90
15355;DHT22;7777;52.254;9.618;2023-03-01T02:54:13;-3.20;99.90
15355;DHT22;7777;52.254;9.618;2023-03-01T02:56:45;-3.30;99.90
15355;DHT22;7777;52.254;9.618;2023-03-01T02:59:15;-3.30;99.90
15355;DHT22;7777;52.254;9.618;2023-03-01T03:01:42;-3.30;99.90
15355;DHT22;7777;52.254;9.618;2023-03-01T03:04:14;-3.30;99.90
15355;DHT22;7777;52.254;9.618;2023-03-01T03:06:43;-3.30;99.90
15355;DHT22;7777;52.254;9.618;2023-03-01T03:09:13;-3.30;99.90
15355;DHT22;7777;52.254;9.618;2023-03-01T03:11:40;-3.30;99.90
15355;DHT22;7777;52.254;9.618;2023-03-01T03:14:07;-3.30;99.90
15355;DHT22;7777;52.254;9.618;2023-03-01T03:16:47;-3.40;99.90
15355;DHT22;7777;52.254;9.618;2023-03-01T03:19:14;-3.40;99.90
15355;DHT22;7777;52.254;9.618;2023-03-01T03:21:42;-3.40;99.90
15355;DHT22;7777;52.254;9.618;2023-03-01T03:24:08;-3.50;99.90
15355;DHT22;7777;52.254;9.618;2023-03-01T03:26:34;-3.50;99.90
15355;DHT22;7777;52.254;9.618;2023-03-01T03:29:00;-3.40;99.90
15355;DHT22;7777;52.254;9.618;2023-03-01T03:31:26;-3.50;99.90
15355;DHT22;7777;52.254;9.618;2023-03-01T03:33:52;-3.50;99.90
15355;DHT22;7777;52.254;9.618;2023-03-01T03:36:21;-3.50;99.90
15355;DHT22;7777;52.254;9.618;2023-03-01T03:38:47;-3.50;99.90
15355;DHT22;7777;52.254;9.618;2023-03-01T03:41:14;-3.50;99.90
15355;DHT22;7777;52.254;9.618;2023-03-01T03:43:41;-3.50;99.90
15355;DHT22;7777;52.254;9.618;2023-03-01T03:46:09;-3.60;99.90
15355;DHT22;7777;52.254;9.618;2023-03-01T03:48:43;-3.60;99.90
15355;DHT22;7777;52.254;9.618;2023-03-01T03:51:12;-3.60;99.90
15355;DHT22;7777;52.254;9.618;2023-03-01T03:53:39;-3.60;99.90
15355;DHT22;7777;52.254;9.618;2023-03-01T03:56:05;-3.60;99.90
15355;DHT22;7777;52.254;9.618;2023-03-01T03:58:31;-3.60;99.90
15355;DHT22;7777;52.254;9.618;2023-03-01T04:00:57;-3.60;99.90
15355;DHT22;7777;52.254;9.618;2023-03-01T04:03:25;-3.60;99.90
15355;DHT22;7777;52.254;9.618;2023-03-01T04:05:52;-3.60;99.90
15355;DHT22;7777;52.254;9.618;2023-03-01T04:08:20;-3.60;99.90
15355;DHT22;7777;52.254;9.618;2023-03-01T04:10:49;-3.40;99.90
15355;DHT22;7777;52.254;9.618;2023-03-01T04:13:19;-3.60;99.90
15355;DHT22;7777;52.254;9.618;2023-03-01T04:15:50;-3.60;99.90
15355;DHT22;7777;52.254;9.618;2023-03-01T04:18:18;-3.60;99.90
15355;DHT22;7777;52.254;9.618;2023-03-01T04:20:45;-3.60;99.90
15355;DHT22;7777;52.254;9.618;2023-03-01T04:23:18;-3.60;99.90
15355;DHT22;7777;52.254;9.618;2023-03-01T04:28:29;-3.60;99.90
15355;DHT22;7777;52.254;9.618;2023-03-01T04:31:01;-3.60;99.90
15355;DHT22;7777;52.254;9.618;2023-03-01T04:33:40;-3.60;99.90
15355;DHT22;7777;52.254;9.618;2023-03-01T04:36:07;-3.60;99.90
15355;DHT22;7777;52.254;9.618;2023-03-01T04:38:35;-3.60;99.90
15355;DHT22;7777;52.254;9.618;2023-03-01T04:41:07;-3.70;99.90
15355;DHT22;7777;52.254;9.618;2023-03-01T04:43:35;-3.70;99.90
15355;DHT22;7777;52.254;9.618;2023-03-01T04:46:06;-3.70;99.90
15355;DHT22;7777;52.254;9.618;2023-03-01T04:48:35;-3.70;99.90
15355;DHT22;7777;52.254;9.618;2023-03-01T04:51:02;-3.70;99.90
15355;DHT22;7777;52.254;9.618;2023-03-01T04:53:29;-3.80;99.90
15355;DHT22;7777;52.254;9.618;2023-03-01T04:55:56;-3.80;99.90
15355;DHT22;7777;52.254;9.618;2023-03-01T04:58:26;-3.80;99.90
15355;DHT22;7777;52.254;9.618;2023-03-01T05:00:53;-3.80;99.90
15355;DHT22;7777;52.254;9.618;2023-03-01T05:03:19;-3.80;99.90
15355;DHT22;7777;52.254;9.618;2023-03-01T05:05:47;-3.80;99.90
15355;DHT22;7777;52.254;9.618;2023-03-01T05:08:15;-3.80;99.90
15355;DHT22;7777;52.254;9.618;2023-03-01T05:10:52;-3.80;99.90
15355;DHT22;7777;52.254;9.618;2023-03-01T05:13:19;-3.80;99.90
15355;DHT22;7777;52.254;9.618;2023-03-01T05:15:57;-3.80;99.90
15355;DHT22;7777;52.254;9.618;2023-03-01T05:18:25;-3.80;99.90
15355;DHT22;7777;52.254;9.618;2023-03-01T05:20:55;-3.90;99.90
15355;DHT22;7777;52.254;9.618;2023-03-01T05:23:26;-3.90;99.90
15355;DHT22;7777;52.254;9.618;2023-03-01T05:25:51;-3.80;99.90
15355;DHT22;7777;52.254;9.618;2023-03-01T05:28:19;-3.80;99.90
15355;DHT22;7777;52.254;9.618;2023-03-01T05:30:46;-3.80;99.90
15355;DHT22;7777;52.254;9.618;2023-03-01T05:33:12;-3.80;99.90
15355;DHT22;7777;52.254;9.618;2023-03-01T05:35:42;-3.90;99.90
15355;DHT22;7777;52.254;9.618;2023-03-01T05:38:10;-3.90;99.90
15355;DHT22;7777;52.254;9.618;2023-03-01T05:40:41;-3.80;99.90
15355;DHT22;7777;52.254;9.618;2023-03-01T05:43:13;-3.90;99.90
15355;DHT22;7777;52.254;9.618;2023-03-01T05:45:44;-3.90;99.90
15355;DHT22;7777;52.254;9.618;2023-03-01T05:48:17;-3.90;99.90
15355;DHT22;7777;52.254;9.618;2023-03-01T05:50:54;-4.00;99.90
15355;DHT22;7777;52.254;9.618;2023-03-01T05:55:40;-4.00;99.90
15355;DHT22;7777;52.254;9.618;2023-03-01T05:58:14;-4.00;99.90
15355;DHT22;7777;52.254;9.618;2023-03-01T06:00:42;-4.00;99.90
15355;DHT22;7777;52.254;9.618;2023-03-01T06:03:11;-4.00;99.90
15355;DHT22;7777;52.254;9.618;2023-03-01T06:05:38;-4.00;99.90
15355;DHT22;7777;52.254;9.618;2023-03-01T06:08:05;-4.00;99.90
15355;DHT22;7777;52.254;9.618;2023-03-01T06:10:31;-4.00;99.90
15355;DHT22;7777;52.254;9.618;2023-03-01T06:12:56;-4.10;99.90
15355;DHT22;7777;52.254;9.618;2023-03-01T06:15:23;-4.10;99.90
15355;DHT22;7777;52.254;9.618;2023-03-01T06:17:50;-4.10;99.90
15355;DHT22;7777;52.254;9.618;2023-03-01T06:20:21;-4.10;99.90
15355;DHT22;7777;52.254;9.618;2023-03-01T06:22:48;-4.10;99.90
15355;DHT22;7777;52.254;9.618;2023-03-01T06:25:17;-4.10;99.90
15355;DHT22;7777;52.254;9.618;2023-03-01T06:27:45;-4.10;99.90
15355;DHT22;7777;52.254;9.618;2023-03-01T06:30:13;-4.00;99.90
15355;DHT22;7777;52.254;9.618;2023-03-01T06:32:40;-4.00;99.90
15355;DHT22;7777;52.254;9.618;2023-03-01T06:35:11;-4.00;99.90
15355;DHT22;7777;52.254;9.618;2023-03-01T06:37:40;-4.00;99.90
15355;DHT22;7777;52.254;9.618;2023-03-01T06:40:07;-4.00;99.90
15355;DHT22;7777;52.254;9.618;2023-03-01T06:42:37;-4.00;99.90
15355;DHT22;7777;52.254;9.618;2023-03-01T06:45:05;-4.10;99.90
15355;DHT22;7777;52.254;9.618;2023-03-01T06:47:32;-4.00;99.90
15355;DHT22;7777;52.254;9.618;2023-03-01T06:50:01;-4.00;99.90
15355;DHT22;7777;52.254;9.618;2023-03-01T06:52:28;-3.90;99.90
15355;DHT22;7777;52.254;9.618;2023-03-01T06:54:54;-3.90;99.90
15355;DHT22;7777;52.254;9.618;2023-03-01T06:57:20;-3.90;99.90
15355;DHT22;7777;52.254;9.618;2023-03-01T06:59:47;-3.90;99.90
15355;DHT22;7777;52.254;9.618;2023-03-01T07:02:14;-3.80;99.90
15355;DHT22;7777;52.254;9.618;2023-03-01T07:04:41;-3.80;99.90
15355;DHT22;7777;52.254;9.618;2023-03-01T07:07:07;-3.80;99.90
15355;DHT22;7777;52.254;9.618;2023-03-01T07:09:32;-3.70;99.90
15355;DHT22;7777;52.254;9.618;2023-03-01T07:11:58;-3.70;99.90
15355;DHT22;7777;52.254;9.618;2023-03-01T07:14:24;-3.60;99.90
15355;DHT22;7777;52.254;9.618;2023-03-01T07:16:51;-3.60;99.90
15355;DHT22;7777;52.254;9.618;2023-03-01T07:19:21;-3.50;99.90
15355;DHT22;7777;52.254;9.618;2023-03-01T07:21:47;-3.50;99.90
15355;DHT22;7777;52.254;9.618;2023-03-01T07:24:13;-3.40;99.90
15355;DHT22;7777;52.254;9.618;2023-03-01T07:26:39;-3.40;99.90
15355;DHT22;7777;52.254;9.618;2023-03-01T07:29:07;-3.30;99.90
15355;DHT22;7777;52.254;9.618;2023-03-01T07:31:33;-3.20;99.90
15355;DHT22;7777;52.254;9.618;2023-03-01T07:33:59;-3.10;99.90
15355;DHT22;7777;52.254;9.618;2023-03-01T07:36:25;-3.10;99.90
15355;DHT22;7777;52.254;9.618;2023-03-01T07:38:51;-3.00;99.90
15355;DHT22;7777;52.254;9.618;2023-03-01T07:41:17;-3.00;99.90
15355;DHT22;7777;52.254;9.618;2023-03-01T07:43:43;-2.90;99.90
15355;DHT22;7777;52.254;9.618;2023-03-01T07:46:09;-2.80;99.90
15355;DHT22;7777;52.254;9.618;2023-03-01T07:48:35;-2.80;99.90
15355;DHT22;7777;52.254;9.618;2023-03-01T07:51:02;-2.70;99.90
15355;DHT22;7777;52.254;9.618;2023-03-01T07:53:30;-2.60;99.90
15355;DHT22;7777;52.254;9.618;2023-03-01T07:56:15;-2.50;99.90
15355;DHT22;7777;52.254;9.618;2023-03-01T07:58:43;-2.40;99.90
15355;DHT22;7777;52.254;9.618;2023-03-01T08:01:15;-2.30;99.90
15355;DHT22;7777;52.254;9.618;2023-03-01T08:03:42;-2.20;99.90
15355;DHT22;7777;52.254;9.618;2023-03-01T08:06:12;-2.10;99.90
15355;DHT22;7777;52.254;9.618;2023-03-01T08:08:39;-2.00;99.90
15355;DHT22;7777;52.254;9.618;2023-03-01T08:11:07;-1.90;99.90
15355;DHT22;7777;52.254;9.618;2023-03-01T08:13:33;-1.80;99.90
15355;DHT22;7777;52.254;9.618;2023-03-01T08:16:04;-1.70;99.90
15355;DHT22;7777;52.254;9.618;2023-03-01T08:18:31;-1.60;99.90
15355;DHT22;7777;52.254;9.618;2023-03-01T08:21:02;-1.50;99.90
15355;DHT22;7777;52.254;9.618;2023-03-01T08:23:29;-1.50;99.90
15355;DHT22;7777;52.254;9.618;2023-03-01T08:26:02;-1.30;99.90
15355;DHT22;7777;52.254;9.618;2023-03-01T08:28:29;-1.20;99.90
15355;DHT22;7777;52.254;9.618;2023-03-01T08:30:54;-1.20;99.90
15355;DHT22;7777;52.254;9.618;2023-03-01T08:33:20;-1.10;99.90
15355;DHT22;7777;52.254;9.618;2023-03-01T08:35:46;-1.00;99.90
15355;DHT22;7777;52.254;9.618;2023-03-01T08:38:11;-0.90;99.90
15355;DHT22;7777;52.254;9.618;2023-03-01T08:40:37;-0.80;99.90
15355;DHT22;7777;52.254;9.618;2023-03-01T08:43:03;-0.70;99.90
15355;DHT22;7777;52.254;9.618;2023-03-01T08:45:28;-0.60;99.90
15355;DHT22;7777;52.254;9.618;2023-03-01T08:47:54;-0.50;99.90
15355;DHT22;7777;52.254;9.618;2023-03-01T08:50:20;-0.40;99.90
15355;DHT22;7777;52.254;9.618;2023-03-01T08:52:45;-0.40;99.90
15355;DHT22;7777;52.254;9.618;2023-03-01T08:55:11;-0.20;99.90
15355;DHT22;7777;52.254;9.618;2023-03-01T08:57:37;-0.20;99.90
15355;DHT22;7777;52.254;9.618;2023-03-01T09:00:03;-0.10;99.90
15355;DHT22;7777;52.254;9.618;2023-03-01T09:02:33;0.00;99.90
15355;DHT22;7777;52.254;9.618;2023-03-01T09:04:59;0.10;99.90
15355;DHT22;7777;52.254;9.618;2023-03-01T09:07:26;0.20;99.90
15355;DHT22;7777;52.254;9.618;2023-03-01T09:09:53;0.30;99.90
15355;DHT22;7777;52.254;9.618;2023-03-01T09:12:20;0.40;99.90
15355;DHT22;7777;52.254;9.618;2023-03-01T09:14:46;0.50;99.90
15355;DHT22;7777;52.254;9.618;2023-03-01T09:17:12;0.50;99.90
15355;DHT22;7777;52.254;9.618;2023-03-01T09:19:37;0.70;99.90
15355;DHT22;7777;52.254;9.618;2023-03-01T09:22:04;0.70;99.90
15355;DHT22;7777;52.254;9.618;2023-03-01T09:24:30;0.90;99.90
15355;DHT22;7777;52.254;9.618;2023-03-01T09:26:56;1.00;99.90
15355;DHT22;7777;52.254;9.618;2023-03-01T09:29:22;1.10;99.90
15355;DHT22;7777;52.254;9.618;2023-03-01T09:31:48;1.20;99.90
15355;DHT22;7777;52.254;9.618;2023-03-01T09:34:14;1.30;99.90
15355;DHT22;7777;52.254;9.618;2023-03-01T09:36:41;1.30;99.90
15355;DHT22;7777;52.254;9.618;2023-03-01T09:39:07;1.50;99.90
15355;DHT22;7777;52.254;9.618;2023-03-01T09:42:01;1.60;99.90
15355;DHT22;7777;52.254;9.618;2023-03-01T09:47:04;1.80;99.90
15355;DHT22;7777;52.254;9.618;2023-03-01T09:49:33;1.90;99.90
15355;DHT22;7777;52.254;9.618;2023-03-01T09:55:14;2.10;99.90
15355;DHT22;7777;52.254;9.618;2023-03-01T09:57:46;2.20;99.90
15355;DHT22;7777;52.254;9.618;2023-03-01T10:00:33;2.30;99.90
15355;DHT22;7777;52.254;9.618;2023-03-01T10:03:12;2.50;99.90
15355;DHT22;7777;52.254;9.618;2023-03-01T10:11:36;2.80;99.90
15355;DHT22;7777;52.254;9.618;2023-03-01T10:14:21;2.90;99.90
15355;DHT22;7777;52.254;9.618;2023-03-01T10:16:58;3.00;99.90
15355;DHT22;7777;52.254;9.618;2023-03-01T10:22:05;3.30;99.90
15355;DHT22;7777;52.254;9.618;2023-03-01T10:24:35;3.30;99.90
15355;DHT22;7777;52.254;9.618;2023-03-01T10:27:23;3.50;99.90
15355;DHT22;7777;52.254;9.618;2023-03-01T10:35:49;3.80;99.90
15355;DHT22;7777;52.254;9.618;2023-03-01T10:38:16;3.90;99.90
15355;DHT22;7777;52.254;9.618;2023-03-01T10:40:57;4.10;99.90
15355;DHT22;7777;52.254;9.618;2023-03-01T10:43:47;4.20;99.90
15355;DHT22;7777;52.254;9.618;2023-03-01T10:46:35;4.30;99.90
15355;DHT22;7777;52.254;9.618;2023-03-01T10:49:16;4.50;99.90
15355;DHT22;7777;52.254;9.618;2023-03-01T10:51:48;4.60;99.90
15355;DHT22;7777;52.254;9.618;2023-03-01T10:54:19;4.80;99.90
15355;DHT22;7777;52.254;9.618;2023-03-01T10:56:58;5.00;99.90
15355;DHT22;7777;52.254;9.618;2023-03-01T10:59:30;5.10;99.90
15355;DHT22;7777;52.254;9.618;2023-03-01T11:02:04;5.20;99.90
15355;DHT22;7777;52.254;9.618;2023-03-01T11:04:40;5.30;99.90
15355;DHT22;7777;52.254;9.618;2023-03-01T11:07:21;5.50;99.90
15355;DHT22;7777;52.254;9.618;2023-03-01T11:09:47;5.60;99.90
15355;DHT22;7777;52.254;9.618;2023-03-01T11:12:14;5.70;99.90
15355;DHT22;7777;52.254;9.618;2023-03-01T11:14:50;5.80;99.90
15355;DHT22;7777;52.254;9.618;2023-03-01T11:17:31;5.80;99.90
15355;DHT22;7777;52.254;9.618;2023-03-01T11:25:58;6.10;99.90
15355;DHT22;7777;52.254;9.618;2023-03-01T11:28:21;6.20;99.90
15355;DHT22;7777;52.254;9.618;2023-03-01T11:31:04;6.30;99.90
15355;DHT22;7777;52.254;9.618;2023-03-01T11:33:39;6.30;99.90
15355;DHT22;7777;52.254;9.618;2023-03-01T11:45:16;6.50;99.90
15355;DHT22;7777;52.254;9.618;2023-03-01T11:50:49;6.50;99.10
15355;DHT22;7777;52.254;9.618;2023-03-01T11:56:03;6.50;98.50
15355;DHT22;7777;52.254;9.618;2023-03-01T11:58:53;6.50;98.60
15355;DHT22;7777;52.254;9.618;2023-03-01T12:04:26;6.50;98.50
15355;DHT22;7777;52.254;9.618;2023-03-01T12:07:20;6.50;98.60
15355;DHT22;7777;52.254;9.618;2023-03-01T12:21:29;6.60;97.90
15355;DHT22;7777;52.254;9.618;2023-03-01T12:24:10;6.60;98.40
15355;DHT22;7777;52.254;9.618;2023-03-01T12:30:07;6.60;97.70
15355;DHT22;7777;52.254;9.618;2023-03-01T12:42:40;6.80;98.20
15355;DHT22;7777;52.254;9.618;2023-03-01T12:50:21;7.00;96.70
15355;DHT22;7777;52.254;9.618;2023-03-01T12:52:55;7.10;97.30
15355;DHT22;7777;52.254;9.618;2023-03-01T12:55:37;7.20;97.70
15355;DHT22;7777;52.254;9.618;2023-03-01T13:01:26;7.60;99.00
15355;DHT22;7777;52.254;9.618;2023-03-01T13:13:24;8.10;96.50
15355;DHT22;7777;52.254;9.618;2023-03-01T13:15:51;8.20;95.80
15355;DHT22;7777;52.254;9.618;2023-03-01T13:20:50;8.40;97.20
15355;DHT22;7777;52.254;9.618;2023-03-01T13:26:16;8.60;95.30
15355;DHT22;7777;52.254;9.618;2023-03-01T13:28:58;8.50;94.70
15355;DHT22;7777;52.254;9.618;2023-03-01T13:33:52;8.70;94.90
15355;DHT22;7777;52.254;9.618;2023-03-01T13:44:26;8.60;93.60
15355;DHT22;7777;52.254;9.618;2023-03-01T13:49:53;8.40;93.40
15355;DHT22;7777;52.254;9.618;2023-03-01T13:52:45;8.30;93.60
15355;DHT22;7777;52.254;9.618;2023-03-01T13:57:43;8.20;95.10
15355;DHT22;7777;52.254;9.618;2023-03-01T14:00:36;8.10;93.70
15355;DHT22;7777;52.254;9.618;2023-03-01T14:03:09;7.90;92.80
15355;DHT22;7777;52.254;9.618;2023-03-01T14:05:42;7.80;93.40
15355;DHT22;7777;52.254;9.618;2023-03-01T14:08:29;7.70;93.20
15355;DHT22;7777;52.254;9.618;2023-03-01T14:22:45;7.60;94.90
15355;DHT22;7777;52.254;9.618;2023-03-01T14:25:27;7.70;95.00
15355;DHT22;7777;52.254;9.618;2023-03-01T14:28:19;7.80;93.80
15355;DHT22;7777;52.254;9.618;2023-03-01T14:30:49;7.90;95.10
15355;DHT22;7777;52.254;9.618;2023-03-01T14:33:31;8.00;94.20
15355;DHT22;7777;52.254;9.618;2023-03-01T14:36:00;8.00;94.00
15355;DHT22;7777;52.254;9.618;2023-03-01T14:38:39;8.00;93.50
15355;DHT22;7777;52.254;9.618;2023-03-01T14:41:11;8.10;94.20
15355;DHT22;7777;52.254;9.618;2023-03-01T14:43:57;8.20;94.20
15355;DHT22;7777;52.254;9.618;2023-03-01T14:46:35;8.30;93.90
15355;DHT22;7777;52.254;9.618;2023-03-01T14:49:11;8.30;93.90
15355;DHT22;7777;52.254;9.618;2023-03-01T14:51:42;8.30;93.60
15355;DHT22;7777;52.254;9.618;2023-03-01T14:57:15;8.30;92.40
15355;DHT22;7777;52.254;9.618;2023-03-01T14:59:43;8.20;92.30
15355;DHT22;7777;52.254;9.618;2023-03-01T15:02:17;8.20;92.10
15355;DHT22;7777;52.254;9.618;2023-03-01T15:04:50;8.10;91.60
15355;DHT22;7777;52.254;9.618;2023-03-01T15:07:18;8.10;92.40
15355;DHT22;7777;52.254;9.618;2023-03-01T15:09:45;8.10;92.60
15355;DHT22;7777;52.254;9.618;2023-03-01T15:12:36;8.00;91.30
15355;DHT22;7777;52.254;9.618;2023-03-01T15:15:29;8.00;91.20
15355;DHT22;7777;52.254;9.618;2023-03-01T15:17:59;7.90;90.70
15355;DHT22;7777;52.254;9.618;2023-03-01T15:20:27;7.90;91.30
15355;DHT22;7777;52.254;9.618;2023-03-01T15:22:55;7.80;92.00
15355;DHT22;7777;52.254;9.618;2023-03-01T15:25:25;7.80;92.40
15355;DHT22;7777;52.254;9.618;2023-03-01T15:27:55;7.80;92.40
15355;DHT22;7777;52.254;9.618;2023-03-01T15:30:33;7.80;92.00
15355;DHT22;7777;52.254;9.618;2023-03-01T15:35:52;7.60;91.40
15355;DHT22;7777;52.254;9.618;2023-03-01T15:38:36;7.50;90.90
15355;DHT22;7777;52.254;9.618;2023-03-01T15:41:29;7.50;91.80
15355;DHT22;7777;52.254;9.618;2023-03-01T15:43:57;7.50;90.90
15355;DHT22;7777;52.254;9.618;2023-03-01T15:46:35;7.40;91.60
15355;DHT22;7777;52.254;9.618;2023-03-01T15:49:41;7.40;91.90
15355;DHT22;7777;52.254;9.618;2023-03-01T15:52:16;7.30;92.60
15355;DHT22;7777;52.254;9.618;2023-03-01T15:54:57;7.30;92.30
15355;DHT22;7777;52.254;9.618;2023-03-01T15:57:24;7.20;91.20
15355;DHT22;7777;52.254;9.618;2023-03-01T15:59:50;7.10;91.60
15355;DHT22;7777;52.254;9.618;2023-03-01T16:02:16;7.10;91.00
15355;DHT22;7777;52.254;9.618;2023-03-01T16:04:42;7.00;92.90
15355;DHT22;7777;52.254;9.618;2023-03-01T16:07:09;7.00;93.30
15355;DHT22;7777;52.254;9.618;2023-03-01T16:09:35;7.00;91.90
15355;DHT22;7777;52.254;9.618;2023-03-01T16:12:01;6.90;91.60
15355;DHT22;7777;52.254;9.618;2023-03-01T16:14:27;6.90;93.50
15355;DHT22;7777;52.254;9.618;2023-03-01T16:16:53;6.90;93.30
15355;DHT22;7777;52.254;9.618;2023-03-01T16:19:19;6.80;92.80
15355;DHT22;7777;52.254;9.618;2023-03-01T16:21:45;6.80;94.00
15355;DHT22;7777;52.254;9.618;2023-03-01T16:24:12;6.80;92.90
15355;DHT22;7777;52.254;9.618;2023-03-01T16:26:38;6.70;93.00
15355;DHT22;7777;52.254;9.618;2023-03-01T16:29:04;6.60;93.70
15355;DHT22;7777;52.254;9.618;2023-03-01T16:31:30;6.60;92.90
15355;DHT22;7777;52.254;9.618;2023-03-01T16:33:58;6.50;93.00
15355;DHT22;7777;52.254;9.618;2023-03-01T16:36:25;6.50;92.60
15355;DHT22;7777;52.254;9.618;2023-03-01T16:38:54;6.40;92.20
15355;DHT22;7777;52.254;9.618;2023-03-01T16:41:22;6.30;93.80
15355;DHT22;7777;52.254;9.618;2023-03-01T16:43:49;6.30;93.70
15355;DHT22;7777;52.254;9.618;2023-03-01T16:46:21;6.30;93.60
15355;DHT22;7777;52.254;9.618;2023-03-01T16:48:48;6.20;93.80
15355;DHT22;7777;52.254;9.618;2023-03-01T16:51:17;6.20;93.40
15355;DHT22;7777;52.254;9.618;2023-03-01T16:53:43;6.10;93.60
15355;DHT22;7777;52.254;9.618;2023-03-01T16:56:10;6.00;93.20
15355;DHT22;7777;52.254;9.618;2023-03-01T16:58:38;5.90;93.30
15355;DHT22;7777;52.254;9.618;2023-03-01T17:01:09;5.80;93.00
15355;DHT22;7777;52.254;9.618;2023-03-01T17:03:38;5.60;92.90
15355;DHT22;7777;52.254;9.618;2023-03-01T17:06:06;5.50;93.10
15355;DHT22;7777;52.254;9.618;2023-03-01T17:08:34;5.40;93.20
15355;DHT22;7777;52.254;9.618;2023-03-01T17:11:05;5.30;93.40
15355;DHT22;7777;52.254;9.618;2023-03-01T17:13:31;5.20;93.50
15355;DHT22;7777;52.254;9.618;2023-03-01T17:15:57;5.00;93.50
15355;DHT22;7777;52.254;9.618;2023-03-01T17:18:23;4.90;93.90
15355;DHT22;7777;52.254;9.618;2023-03-01T17:20:49;4.80;94.00
15355;DHT22;7777;52.254;9.618;2023-03-01T17:23:15;4.70;94.00
15355;DHT22;7777;52.254;9.618;2023-03-01T17:25:42;4.50;94.00
15355;DHT22;7777;52.254;9.618;2023-03-01T17:28:10;4.40;94.20
15355;DHT22;7777;52.254;9.618;2023-03-01T17:30:41;4.30;94.40
15355;DHT22;7777;52.254;9.618;2023-03-01T17:33:09;4.10;94.50
15355;DHT22;7777;52.254;9.618;2023-03-01T17:35:36;4.00;94.50
15355;DHT22;7777;52.254;9.618;2023-03-01T17:38:03;3.90;94.60
15355;DHT22;7777;52.254;9.618;2023-03-01T17:40:30;3.80;94.80
15355;DHT22;7777;52.254;9.618;2023-03-01T17:42:56;3.70;94.80
15355;DHT22;7777;52.254;9.618;2023-03-01T17:45:23;3.50;94.90
15355;DHT22;7777;52.254;9.618;2023-03-01T17:47:48;3.40;95.10
15355;DHT22;7777;52.254;9.618;2023-03-01T17:50:14;3.30;95.30
15355;DHT22;7777;52.254;9.618;2023-03-01T17:52:40;3.20;95.40
15355;DHT22;7777;52.254;9.618;2023-03-01T17:55:07;3.10;95.50
15355;DHT22;7777;52.254;9.618;2023-03-01T17:57:34;3.00;95.60
15355;DHT22;7777;52.254;9.618;2023-03-01T18:00:04;2.90;95.80
15355;DHT22;7777;52.254;9.618;2023-03-01T18:02:32;2.80;95.80
15355;DHT22;7777;52.254;9.618;2023-03-01T18:04:57;2.70;96.00
15355;DHT22;7777;52.254;9.618;2023-03-01T18:07:25;2.60;96.00
15355;DHT22;7777;52.254;9.618;2023-03-01T18:09:52;2.50;96.10
15355;DHT22;7777;52.254;9.618;2023-03-01T18:12:18;2.50;96.30
15355;DHT22;7777;52.254;9.618;2023-03-01T18:14:44;2.40;96.40
15355;DHT22;7777;52.254;9.618;2023-03-01T18:17:09;2.30;96.60
15355;DHT22;7777;52.254;9.618;2023-03-01T18:19:39;2.20;96.70
15355;DHT22;7777;52.254;9.618;2023-03-01T18:22:07;2.10;96.80
15355;DHT22;7777;52.254;9.618;2023-03-01T18:24:33;2.10;97.10
15355;DHT22;7777;52.254;9.618;2023-03-01T18:26:59;2.00;97.10
15355;DHT22;7777;52.254;9.618;2023-03-01T18:29:25;1.90;97.30